This is the latest recevied weather packets stored in our database for station/object K42C. If no packets are shown the sender has not sent any weather packets the latest 10 day(s).
| Time | Temp. | Humidity | Pressure | Rain* | Wind** | Luminosity | Snow |
|---|---|---|---|---|---|---|---|
| 1777874144 | 10.56° C | 90% | 967.5 hPa | 0 mm | 0.45 m/s, 197° | - | - |
| 1777873743 | 10.56° C | 90% | 967.6 hPa | 0 mm | 1.34 m/s, 190° | - | - |
| 1777873346 | 10.56° C | 89% | 967.6 hPa | 0 mm | 1.79 m/s, 191° | - | - |
| 1777872548 | 10.56° C | 89% | 967.6 hPa | 0 mm | 1.34 m/s, 197° | - | - |
| 1777872147 | 10.56° C | 88% | 967.7 hPa | 0 mm | 2.68 m/s, 210° | - | - |
| 1777871750 | 10.56° C | 88% | 967.7 hPa | 0 mm | 2.68 m/s, 165° | - | - |
| 1777871349 | 10.56° C | 88% | 967.8 hPa | 0 mm | 3.13 m/s, 173° | - | - |
| 1777870951 | 11.11° C | 87% | 967.9 hPa | 0 mm | 3.13 m/s, 188° | - | - |
| 1777870551 | 11.11° C | 87% | 967.9 hPa | 0 mm | 1.79 m/s, 184° | - | - |
| 1777870153 | 11.11° C | 86% | 968 hPa | 0 mm | 0.89 m/s, 203° | - | - |
| 1777869753 | 11.11° C | 86% | 967.9 hPa | 0 mm | 2.68 m/s, 165° | - | - |
| 1777869355 | 11.11° C | 86% | 968 hPa | 0 mm | 2.24 m/s, 197° | - | - |
| 1777868954 | 11.11° C | 86% | 968 hPa | 0 mm | 2.68 m/s, 225° | - | - |
| 1777868557 | 11.11° C | 86% | 967.9 hPa | 0 mm | 2.24 m/s, 169° | - | - |
| 1777868156 | 11.11° C | 85% | 968 hPa | 0 mm | 1.79 m/s, 190° | - | - |
| 1777867759 | 11.11° C | 85% | 968.1 hPa | 0 mm | 2.68 m/s, 176° | - | - |
| 1777867358 | 11.11° C | 84% | 968.1 hPa | 0 mm | 2.68 m/s, 160° | - | - |
| 1777866961 | 11.11° C | 84% | 968.3 hPa | 0 mm | 3.13 m/s, 222° | - | - |
| 1777866560 | 11.11° C | 83% | 968.2 hPa | 0 mm | 2.24 m/s, 176° | - | - |
| 1777866163 | 11.11° C | 83% | 968.3 hPa | 0 mm | 2.68 m/s, 194° | - | - |
| 1777865762 | 11.11° C | 82% | 968.3 hPa | 0 mm | 2.24 m/s, 177° | - | - |
| 1777865364 | 11.11° C | 82% | 968.4 hPa | 0 mm | 2.68 m/s, 217° | - | - |
| 1777864964 | 11.11° C | 81% | 968.4 hPa | 0 mm | 1.34 m/s, 226° | - | - |
| 1777864566 | 11.67° C | 80% | 968.5 hPa | 0 mm | 3.13 m/s, 190° | - | - |
| 1777864165 | 11.67° C | 80% | 968.6 hPa | 0 mm | 0.45 m/s, 184° | - | - |
* Rain latest hour (hover to see other rain measurements)
** Current wind speed in m/s (hover to see current wind gust speed)